sensor_id;sensor_type;location;lat;lon;timestamp;temperature;humidity
52867;DHT22;38739;53.324;6.862;2022-12-07T00:01:24;3.20;99.90
52867;DHT22;38739;53.324;6.862;2022-12-07T00:03:52;3.20;99.90
52867;DHT22;38739;53.324;6.862;2022-12-07T00:06:18;3.20;99.90
52867;DHT22;38739;53.324;6.862;2022-12-07T00:08:45;3.20;99.90
52867;DHT22;38739;53.324;6.862;2022-12-07T00:11:13;3.20;99.90
52867;DHT22;38739;53.324;6.862;2022-12-07T00:13:40;3.20;99.90
52867;DHT22;38739;53.324;6.862;2022-12-07T00:16:09;3.20;99.90
52867;DHT22;38739;53.324;6.862;2022-12-07T00:18:35;3.20;99.90
52867;DHT22;38739;53.324;6.862;2022-12-07T00:21:09;3.20;99.90
52867;DHT22;38739;53.324;6.862;2022-12-07T00:23:35;3.20;99.90
52867;DHT22;38739;53.324;6.862;2022-12-07T00:26:09;3.20;99.90
52867;DHT22;38739;53.324;6.862;2022-12-07T00:28:36;3.30;99.90
52867;DHT22;38739;53.324;6.862;2022-12-07T00:31:10;3.30;99.90
52867;DHT22;38739;53.324;6.862;2022-12-07T00:33:37;3.40;99.90
52867;DHT22;38739;53.324;6.862;2022-12-07T00:36:06;3.40;99.90
52867;DHT22;38739;53.324;6.862;2022-12-07T00:38:34;3.40;99.90
52867;DHT22;38739;53.324;6.862;2022-12-07T00:41:03;3.50;99.90
52867;DHT22;38739;53.324;6.862;2022-12-07T00:43:29;3.60;99.90
52867;DHT22;38739;53.324;6.862;2022-12-07T00:45:55;3.60;99.90
52867;DHT22;38739;53.324;6.862;2022-12-07T00:48:21;3.70;99.90
52867;DHT22;38739;53.324;6.862;2022-12-07T00:50:48;3.70;99.90
52867;DHT22;38739;53.324;6.862;2022-12-07T00:53:17;3.70;99.90
52867;DHT22;38739;53.324;6.862;2022-12-07T00:55:43;3.70;99.90
52867;DHT22;38739;53.324;6.862;2022-12-07T00:58:09;3.60;99.90
52867;DHT22;38739;53.324;6.862;2022-12-07T01:00:37;3.60;99.90
52867;DHT22;38739;53.324;6.862;2022-12-07T01:03:04;3.60;99.90
52867;DHT22;38739;53.324;6.862;2022-12-07T01:05:30;3.60;99.90
52867;DHT22;38739;53.324;6.862;2022-12-07T01:07:56;3.70;99.90
52867;DHT22;38739;53.324;6.862;2022-12-07T01:10:22;3.70;99.90
52867;DHT22;38739;53.324;6.862;2022-12-07T01:12:47;3.70;99.90
52867;DHT22;38739;53.324;6.862;2022-12-07T01:15:13;3.80;99.90
52867;DHT22;38739;53.324;6.862;2022-12-07T01:17:39;3.80;99.90
52867;DHT22;38739;53.324;6.862;2022-12-07T01:20:05;3.80;99.90
52867;DHT22;38739;53.324;6.862;2022-12-07T01:22:31;3.90;99.90
52867;DHT22;38739;53.324;6.862;2022-12-07T01:24:57;3.90;99.90
52867;DHT22;38739;53.324;6.862;2022-12-07T01:27:22;4.00;99.90
52867;DHT22;38739;53.324;6.862;2022-12-07T01:29:48;3.90;99.90
52867;DHT22;38739;53.324;6.862;2022-12-07T01:32:14;3.90;99.90
52867;DHT22;38739;53.324;6.862;2022-12-07T01:34:39;3.90;99.90
52867;DHT22;38739;53.324;6.862;2022-12-07T01:37:06;3.80;99.90
52867;DHT22;38739;53.324;6.862;2022-12-07T01:39:32;3.80;99.90
52867;DHT22;38739;53.324;6.862;2022-12-07T01:41:57;3.70;99.90
52867;DHT22;38739;53.324;6.862;2022-12-07T01:44:26;3.70;99.90
52867;DHT22;38739;53.324;6.862;2022-12-07T01:46:54;3.70;99.90
52867;DHT22;38739;53.324;6.862;2022-12-07T01:49:40;3.70;99.90
52867;DHT22;38739;53.324;6.862;2022-12-07T01:54:34;3.70;99.90
52867;DHT22;38739;53.324;6.862;2022-12-07T01:57:01;3.80;99.90
52867;DHT22;38739;53.324;6.862;2022-12-07T01:59:28;3.80;99.90
52867;DHT22;38739;53.324;6.862;2022-12-07T02:01:55;3.90;99.90
52867;DHT22;38739;53.324;6.862;2022-12-07T02:04:22;4.00;99.90
52867;DHT22;38739;53.324;6.862;2022-12-07T02:06:48;4.10;99.90
52867;DHT22;38739;53.324;6.862;2022-12-07T02:09:15;4.10;99.90
52867;DHT22;38739;53.324;6.862;2022-12-07T02:11:41;4.10;99.90
52867;DHT22;38739;53.324;6.862;2022-12-07T02:14:07;4.00;99.90
52867;DHT22;38739;53.324;6.862;2022-12-07T02:27:52;3.60;99.90
52867;DHT22;38739;53.324;6.862;2022-12-07T02:30:21;3.50;99.90
52867;DHT22;38739;53.324;6.862;2022-12-07T02:32:58;3.50;99.90
52867;DHT22;38739;53.324;6.862;2022-12-07T02:35:50;3.40;99.90
52867;DHT22;38739;53.324;6.862;2022-12-07T02:38:29;3.40;99.90
52867;DHT22;38739;53.324;6.862;2022-12-07T02:41:10;3.30;99.90
52867;DHT22;38739;53.324;6.862;2022-12-07T02:43:46;3.30;99.90
52867;DHT22;38739;53.324;6.862;2022-12-07T02:46:40;3.40;99.90
52867;DHT22;38739;53.324;6.862;2022-12-07T02:49:08;3.40;99.90
52867;DHT22;38739;53.324;6.862;2022-12-07T02:51:38;3.50;99.90
52867;DHT22;38739;53.324;6.862;2022-12-07T02:54:11;3.50;99.90
52867;DHT22;38739;53.324;6.862;2022-12-07T02:56:45;3.70;99.90
52867;DHT22;38739;53.324;6.862;2022-12-07T03:09:05;3.80;99.90
52867;DHT22;38739;53.324;6.862;2022-12-07T03:11:46;3.80;99.90
52867;DHT22;38739;53.324;6.862;2022-12-07T03:14:21;3.80;99.90
52867;DHT22;38739;53.324;6.862;2022-12-07T03:19:19;3.80;99.90
52867;DHT22;38739;53.324;6.862;2022-12-07T03:22:00;3.70;99.90
52867;DHT22;38739;53.324;6.862;2022-12-07T03:24:32;3.70;99.90
52867;DHT22;38739;53.324;6.862;2022-12-07T03:27:20;3.60;99.90
52867;DHT22;38739;53.324;6.862;2022-12-07T03:30:06;3.60;99.90
52867;DHT22;38739;53.324;6.862;2022-12-07T03:32:40;3.50;99.90
52867;DHT22;38739;53.324;6.862;2022-12-07T03:41:00;3.40;99.90
52867;DHT22;38739;53.324;6.862;2022-12-07T03:43:28;3.40;99.90
52867;DHT22;38739;53.324;6.862;2022-12-07T03:51:43;3.60;99.90
52867;DHT22;38739;53.324;6.862;2022-12-07T03:54:59;3.50;99.90
52867;DHT22;38739;53.324;6.862;2022-12-07T03:57:01;3.60;99.90
52867;DHT22;38739;53.324;6.862;2022-12-07T03:59:27;3.60;99.90
52867;DHT22;38739;53.324;6.862;2022-12-07T04:01:57;3.60;99.90
52867;DHT22;38739;53.324;6.862;2022-12-07T04:04:24;3.50;99.90
52867;DHT22;38739;53.324;6.862;2022-12-07T04:09:21;3.40;99.90
52867;DHT22;38739;53.324;6.862;2022-12-07T04:11:47;3.40;99.90
52867;DHT22;38739;53.324;6.862;2022-12-07T04:14:13;3.40;99.90
52867;DHT22;38739;53.324;6.862;2022-12-07T04:16:50;3.30;99.90
52867;DHT22;38739;53.324;6.862;2022-12-07T04:19:17;3.20;99.90
52867;DHT22;38739;53.324;6.862;2022-12-07T04:21:43;3.20;99.90
52867;DHT22;38739;53.324;6.862;2022-12-07T04:24:09;3.10;99.90
52867;DHT22;38739;53.324;6.862;2022-12-07T04:26:35;3.10;99.90
52867;DHT22;38739;53.324;6.862;2022-12-07T04:29:01;3.10;99.90
52867;DHT22;38739;53.324;6.862;2022-12-07T04:31:26;3.10;99.90
52867;DHT22;38739;53.324;6.862;2022-12-07T04:33:52;3.10;99.90
52867;DHT22;38739;53.324;6.862;2022-12-07T04:36:18;3.10;99.90
52867;DHT22;38739;53.324;6.862;2022-12-07T04:38:45;3.10;99.90
52867;DHT22;38739;53.324;6.862;2022-12-07T04:41:11;3.10;99.90
52867;DHT22;38739;53.324;6.862;2022-12-07T04:43:36;3.10;99.90
52867;DHT22;38739;53.324;6.862;2022-12-07T04:46:02;3.20;99.90
52867;DHT22;38739;53.324;6.862;2022-12-07T04:48:28;3.20;99.90
52867;DHT22;38739;53.324;6.862;2022-12-07T04:50:54;3.30;99.90
52867;DHT22;38739;53.324;6.862;2022-12-07T04:53:20;3.30;99.90
52867;DHT22;38739;53.324;6.862;2022-12-07T04:55:46;3.40;99.90
52867;DHT22;38739;53.324;6.862;2022-12-07T04:58:13;3.40;99.90
52867;DHT22;38739;53.324;6.862;2022-12-07T05:00:40;3.40;99.90
52867;DHT22;38739;53.324;6.862;2022-12-07T05:03:06;3.30;99.90
52867;DHT22;38739;53.324;6.862;2022-12-07T05:05:32;3.30;99.90
52867;DHT22;38739;53.324;6.862;2022-12-07T05:07:58;3.20;99.90
52867;DHT22;38739;53.324;6.862;2022-12-07T05:10:23;3.20;99.90
52867;DHT22;38739;53.324;6.862;2022-12-07T05:12:49;3.10;99.90
52867;DHT22;38739;53.324;6.862;2022-12-07T05:15:15;3.00;99.90
52867;DHT22;38739;53.324;6.862;2022-12-07T05:17:41;3.00;99.90
52867;DHT22;38739;53.324;6.862;2022-12-07T05:20:08;3.00;99.90
52867;DHT22;38739;53.324;6.862;2022-12-07T05:22:34;3.10;99.90
52867;DHT22;38739;53.324;6.862;2022-12-07T05:24:59;3.10;99.90
52867;DHT22;38739;53.324;6.862;2022-12-07T05:27:25;3.10;99.90
52867;DHT22;38739;53.324;6.862;2022-12-07T05:29:51;3.10;99.90
52867;DHT22;38739;53.324;6.862;2022-12-07T05:32:17;3.00;99.90
52867;DHT22;38739;53.324;6.862;2022-12-07T05:34:46;3.00;99.90
52867;DHT22;38739;53.324;6.862;2022-12-07T05:37:12;3.00;99.90
52867;DHT22;38739;53.324;6.862;2022-12-07T05:39:37;3.00;99.90
52867;DHT22;38739;53.324;6.862;2022-12-07T05:42:06;3.00;99.90
52867;DHT22;38739;53.324;6.862;2022-12-07T05:44:38;3.00;99.90
52867;DHT22;38739;53.324;6.862;2022-12-07T05:47:04;3.10;99.90
52867;DHT22;38739;53.324;6.862;2022-12-07T05:49:30;3.10;99.90
52867;DHT22;38739;53.324;6.862;2022-12-07T05:51:56;3.10;99.90
52867;DHT22;38739;53.324;6.862;2022-12-07T05:54:21;3.10;99.90
52867;DHT22;38739;53.324;6.862;2022-12-07T05:56:47;3.10;99.90
52867;DHT22;38739;53.324;6.862;2022-12-07T05:59:13;3.20;99.90
52867;DHT22;38739;53.324;6.862;2022-12-07T06:01:51;3.10;99.90
52867;DHT22;38739;53.324;6.862;2022-12-07T06:04:18;3.10;99.90
52867;DHT22;38739;53.324;6.862;2022-12-07T06:06:44;3.10;99.90
52867;DHT22;38739;53.324;6.862;2022-12-07T06:09:10;3.10;99.90
52867;DHT22;38739;53.324;6.862;2022-12-07T06:11:38;3.10;99.90
52867;DHT22;38739;53.324;6.862;2022-12-07T06:14:23;3.20;99.90
52867;DHT22;38739;53.324;6.862;2022-12-07T06:16:48;3.10;99.90
52867;DHT22;38739;53.324;6.862;2022-12-07T06:19:14;3.20;99.90
52867;DHT22;38739;53.324;6.862;2022-12-07T06:21:40;3.30;99.90
52867;DHT22;38739;53.324;6.862;2022-12-07T06:24:06;3.30;99.90
52867;DHT22;38739;53.324;6.862;2022-12-07T06:26:31;3.30;99.90
52867;DHT22;38739;53.324;6.862;2022-12-07T06:28:57;3.30;99.90
52867;DHT22;38739;53.324;6.862;2022-12-07T06:31:23;3.20;99.90
52867;DHT22;38739;53.324;6.862;2022-12-07T06:33:49;3.20;99.90
52867;DHT22;38739;53.324;6.862;2022-12-07T06:36:14;3.10;99.90
52867;DHT22;38739;53.324;6.862;2022-12-07T06:38:40;3.10;99.90
52867;DHT22;38739;53.324;6.862;2022-12-07T06:41:06;3.00;99.90
52867;DHT22;38739;53.324;6.862;2022-12-07T06:43:32;3.00;99.90
52867;DHT22;38739;53.324;6.862;2022-12-07T06:45:58;2.90;99.90
52867;DHT22;38739;53.324;6.862;2022-12-07T06:48:23;2.90;99.90
52867;DHT22;38739;53.324;6.862;2022-12-07T06:50:49;2.80;99.90
52867;DHT22;38739;53.324;6.862;2022-12-07T06:53:15;2.80;99.90
52867;DHT22;38739;53.324;6.862;2022-12-07T06:55:42;2.70;99.90
52867;DHT22;38739;53.324;6.862;2022-12-07T06:58:08;2.70;99.90
52867;DHT22;38739;53.324;6.862;2022-12-07T07:00:33;2.60;99.90
52867;DHT22;38739;53.324;6.862;2022-12-07T07:03:00;2.50;99.90
52867;DHT22;38739;53.324;6.862;2022-12-07T07:05:26;2.50;99.90
52867;DHT22;38739;53.324;6.862;2022-12-07T07:07:55;2.50;99.90
52867;DHT22;38739;53.324;6.862;2022-12-07T07:10:20;2.40;99.90
52867;DHT22;38739;53.324;6.862;2022-12-07T07:12:46;2.40;99.90
52867;DHT22;38739;53.324;6.862;2022-12-07T07:15:12;2.40;99.90
52867;DHT22;38739;53.324;6.862;2022-12-07T07:17:38;2.40;99.90
52867;DHT22;38739;53.324;6.862;2022-12-07T07:20:04;2.40;99.90
52867;DHT22;38739;53.324;6.862;2022-12-07T07:22:30;2.30;99.90
52867;DHT22;38739;53.324;6.862;2022-12-07T07:24:55;2.30;99.90
52867;DHT22;38739;53.324;6.862;2022-12-07T07:27:21;2.40;99.90
52867;DHT22;38739;53.324;6.862;2022-12-07T07:29:47;2.40;99.90
52867;DHT22;38739;53.324;6.862;2022-12-07T07:32:12;2.40;99.90
52867;DHT22;38739;53.324;6.862;2022-12-07T07:34:39;2.40;99.90
52867;DHT22;38739;53.324;6.862;2022-12-07T07:37:05;2.50;99.90
52867;DHT22;38739;53.324;6.862;2022-12-07T07:39:31;2.50;99.90
52867;DHT22;38739;53.324;6.862;2022-12-07T07:41:56;2.60;99.90
52867;DHT22;38739;53.324;6.862;2022-12-07T07:44:22;2.70;99.90
52867;DHT22;38739;53.324;6.862;2022-12-07T07:46:47;2.70;99.90
52867;DHT22;38739;53.324;6.862;2022-12-07T07:49:13;2.70;99.90
52867;DHT22;38739;53.324;6.862;2022-12-07T07:51:39;2.70;99.90
52867;DHT22;38739;53.324;6.862;2022-12-07T07:54:04;2.80;99.90
52867;DHT22;38739;53.324;6.862;2022-12-07T07:56:30;2.80;99.90
52867;DHT22;38739;53.324;6.862;2022-12-07T07:58:56;2.80;99.90
52867;DHT22;38739;53.324;6.862;2022-12-07T08:01:22;2.90;99.90
52867;DHT22;38739;53.324;6.862;2022-12-07T08:03:47;2.90;99.90
52867;DHT22;38739;53.324;6.862;2022-12-07T08:06:13;2.90;99.90
52867;DHT22;38739;53.324;6.862;2022-12-07T08:08:39;3.00;99.90
52867;DHT22;38739;53.324;6.862;2022-12-07T08:11:05;3.00;99.90
52867;DHT22;38739;53.324;6.862;2022-12-07T08:13:31;3.00;99.90
52867;DHT22;38739;53.324;6.862;2022-12-07T08:15:57;3.00;99.90
52867;DHT22;38739;53.324;6.862;2022-12-07T08:18:23;3.00;99.90
52867;DHT22;38739;53.324;6.862;2022-12-07T08:20:49;3.00;99.90
52867;DHT22;38739;53.324;6.862;2022-12-07T08:23:15;3.00;99.90
52867;DHT22;38739;53.324;6.862;2022-12-07T08:25:40;3.10;99.90
52867;DHT22;38739;53.324;6.862;2022-12-07T08:28:06;3.10;99.90
52867;DHT22;38739;53.324;6.862;2022-12-07T08:30:33;3.20;99.90
52867;DHT22;38739;53.324;6.862;2022-12-07T08:32:58;3.20;99.90
52867;DHT22;38739;53.324;6.862;2022-12-07T08:35:24;3.20;99.90
52867;DHT22;38739;53.324;6.862;2022-12-07T08:37:50;3.30;99.90
52867;DHT22;38739;53.324;6.862;2022-12-07T08:40:16;3.30;99.90
52867;DHT22;38739;53.324;6.862;2022-12-07T08:42:47;3.40;99.90
52867;DHT22;38739;53.324;6.862;2022-12-07T08:45:14;3.40;99.90
52867;DHT22;38739;53.324;6.862;2022-12-07T08:47:43;3.50;99.90
52867;DHT22;38739;53.324;6.862;2022-12-07T08:50:11;3.50;99.90
52867;DHT22;38739;53.324;6.862;2022-12-07T08:52:37;3.60;99.90
52867;DHT22;38739;53.324;6.862;2022-12-07T08:55:05;3.60;99.90
52867;DHT22;38739;53.324;6.862;2022-12-07T08:57:33;3.60;99.90
52867;DHT22;38739;53.324;6.862;2022-12-07T08:59:59;3.70;99.90
52867;DHT22;38739;53.324;6.862;2022-12-07T09:02:25;3.70;99.90
52867;DHT22;38739;53.324;6.862;2022-12-07T09:04:51;3.80;99.90
52867;DHT22;38739;53.324;6.862;2022-12-07T09:07:17;3.80;99.90
52867;DHT22;38739;53.324;6.862;2022-12-07T09:09:42;3.90;99.90
52867;DHT22;38739;53.324;6.862;2022-12-07T09:12:08;4.00;99.90
52867;DHT22;38739;53.324;6.862;2022-12-07T09:14:34;4.00;99.90
52867;DHT22;38739;53.324;6.862;2022-12-07T09:17:11;4.10;99.90
52867;DHT22;38739;53.324;6.862;2022-12-07T09:19:37;4.10;99.90
52867;DHT22;38739;53.324;6.862;2022-12-07T09:22:03;4.20;99.90
52867;DHT22;38739;53.324;6.862;2022-12-07T09:24:30;4.40;99.90
52867;DHT22;38739;53.324;6.862;2022-12-07T09:26:57;4.40;99.90
52867;DHT22;38739;53.324;6.862;2022-12-07T09:29:23;4.60;99.90
52867;DHT22;38739;53.324;6.862;2022-12-07T09:31:48;4.60;99.90
52867;DHT22;38739;53.324;6.862;2022-12-07T09:34:14;4.70;99.90
52867;DHT22;38739;53.324;6.862;2022-12-07T09:36:40;4.80;99.90
52867;DHT22;38739;53.324;6.862;2022-12-07T09:39:06;4.90;99.90
52867;DHT22;38739;53.324;6.862;2022-12-07T09:41:32;4.90;99.90
52867;DHT22;38739;53.324;6.862;2022-12-07T09:44:13;4.90;99.90
52867;DHT22;38739;53.324;6.862;2022-12-07T09:46:42;4.90;99.90
52867;DHT22;38739;53.324;6.862;2022-12-07T09:49:20;4.90;99.90
52867;DHT22;38739;53.324;6.862;2022-12-07T09:51:47;4.90;99.90
52867;DHT22;38739;53.324;6.862;2022-12-07T09:54:15;5.00;99.90
52867;DHT22;38739;53.324;6.862;2022-12-07T09:56:42;5.00;99.90
52867;DHT22;38739;53.324;6.862;2022-12-07T09:59:18;5.00;99.90
52867;DHT22;38739;53.324;6.862;2022-12-07T10:01:46;5.00;99.90
52867;DHT22;38739;53.324;6.862;2022-12-07T10:04:24;5.00;99.90
52867;DHT22;38739;53.324;6.862;2022-12-07T10:06:50;5.10;99.90
52867;DHT22;38739;53.324;6.862;2022-12-07T10:09:21;5.20;99.90
52867;DHT22;38739;53.324;6.862;2022-12-07T10:12:06;5.30;99.90
52867;DHT22;38739;53.324;6.862;2022-12-07T10:14:34;5.30;99.90
52867;DHT22;38739;53.324;6.862;2022-12-07T10:17:01;5.30;99.90
52867;DHT22;38739;53.324;6.862;2022-12-07T10:19:32;5.40;99.90
52867;DHT22;38739;53.324;6.862;2022-12-07T10:24:25;5.40;99.90
52867;DHT22;38739;53.324;6.862;2022-12-07T10:26:52;5.50;99.90
52867;DHT22;38739;53.324;6.862;2022-12-07T10:29:24;5.50;99.90
52867;DHT22;38739;53.324;6.862;2022-12-07T10:34:36;5.60;99.90
52867;DHT22;38739;53.324;6.862;2022-12-07T10:37:16;5.60;99.90
52867;DHT22;38739;53.324;6.862;2022-12-07T10:39:56;5.70;99.90
52867;DHT22;38739;53.324;6.862;2022-12-07T10:42:25;5.70;99.90
52867;DHT22;38739;53.324;6.862;2022-12-07T10:47:42;5.70;99.90
52867;DHT22;38739;53.324;6.862;2022-12-07T11:01:41;5.90;99.90
52867;DHT22;38739;53.324;6.862;2022-12-07T11:04:17;6.00;99.90
52867;DHT22;38739;53.324;6.862;2022-12-07T11:06:47;6.20;99.90
52867;DHT22;38739;53.324;6.862;2022-12-07T11:11:57;6.20;99.90
52867;DHT22;38739;53.324;6.862;2022-12-07T11:17:06;6.20;99.90
52867;DHT22;38739;53.324;6.862;2022-12-07T11:19:49;6.20;99.90
52867;DHT22;38739;53.324;6.862;2022-12-07T11:25:16;6.10;99.90
52867;DHT22;38739;53.324;6.862;2022-12-07T11:36:31;6.00;99.90
52867;DHT22;38739;53.324;6.862;2022-12-07T11:39:00;6.00;99.90
52867;DHT22;38739;53.324;6.862;2022-12-07T11:41:35;6.10;99.90
52867;DHT22;38739;53.324;6.862;2022-12-07T11:44:48;6.10;99.90
52867;DHT22;38739;53.324;6.862;2022-12-07T11:46:55;6.20;99.90
52867;DHT22;38739;53.324;6.862;2022-12-07T11:54:46;6.20;99.90
52867;DHT22;38739;53.324;6.862;2022-12-07T12:00:14;6.10;99.90
52867;DHT22;38739;53.324;6.862;2022-12-07T12:03:03;6.10;99.90
52867;DHT22;38739;53.324;6.862;2022-12-07T12:05:31;6.10;99.90
52867;DHT22;38739;53.324;6.862;2022-12-07T12:21:46;6.10;99.90
52867;DHT22;38739;53.324;6.862;2022-12-07T12:24:18;6.10;99.90
52867;DHT22;38739;53.324;6.862;2022-12-07T12:26:51;6.10;99.90
52867;DHT22;38739;53.324;6.862;2022-12-07T12:29:36;6.10;99.90
52867;DHT22;38739;53.324;6.862;2022-12-07T12:32:14;6.20;99.90
52867;DHT22;38739;53.324;6.862;2022-12-07T12:42:55;6.40;99.90
52867;DHT22;38739;53.324;6.862;2022-12-07T12:45:26;6.40;99.90
52867;DHT22;38739;53.324;6.862;2022-12-07T12:47:53;6.40;99.90
52867;DHT22;38739;53.324;6.862;2022-12-07T12:50:20;6.40;99.90
52867;DHT22;38739;53.324;6.862;2022-12-07T13:03:54;6.50;99.90
52867;DHT22;38739;53.324;6.862;2022-12-07T13:08:54;6.60;99.90
52867;DHT22;38739;53.324;6.862;2022-12-07T13:11:34;6.50;99.90
52867;DHT22;38739;53.324;6.862;2022-12-07T13:14:38;6.50;99.90
52867;DHT22;38739;53.324;6.862;2022-12-07T13:19:53;6.50;99.90
52867;DHT22;38739;53.324;6.862;2022-12-07T13:24:57;6.50;99.90
52867;DHT22;38739;53.324;6.862;2022-12-07T13:27:26;6.40;99.90
52867;DHT22;38739;53.324;6.862;2022-12-07T13:29:55;6.40;99.90
52867;DHT22;38739;53.324;6.862;2022-12-07T13:32:32;6.20;99.90
52867;DHT22;38739;53.324;6.862;2022-12-07T13:34:58;5.90;99.90
52867;DHT22;38739;53.324;6.862;2022-12-07T13:37:28;5.50;99.90
52867;DHT22;38739;53.324;6.862;2022-12-07T13:40:00;5.30;99.90
52867;DHT22;38739;53.324;6.862;2022-12-07T13:42:32;5.10;99.90
52867;DHT22;38739;53.324;6.862;2022-12-07T13:45:01;5.00;99.90
52867;DHT22;38739;53.324;6.862;2022-12-07T13:47:49;4.90;99.90
52867;DHT22;38739;53.324;6.862;2022-12-07T13:52:55;4.80;99.90
52867;DHT22;38739;53.324;6.862;2022-12-07T13:55:22;4.80;99.90
52867;DHT22;38739;53.324;6.862;2022-12-07T13:57:51;4.80;99.90
52867;DHT22;38739;53.324;6.862;2022-12-07T14:00:28;4.80;99.90
52867;DHT22;38739;53.324;6.862;2022-12-07T14:05:26;4.70;99.90
52867;DHT22;38739;53.324;6.862;2022-12-07T14:08:04;4.70;99.90
52867;DHT22;38739;53.324;6.862;2022-12-07T14:10:36;4.70;99.90
52867;DHT22;38739;53.324;6.862;2022-12-07T14:13:17;4.70;99.90
52867;DHT22;38739;53.324;6.862;2022-12-07T14:15:50;4.60;99.90
52867;DHT22;38739;53.324;6.862;2022-12-07T14:18:31;4.50;99.90
52867;DHT22;38739;53.324;6.862;2022-12-07T14:21:05;4.50;99.90
52867;DHT22;38739;53.324;6.862;2022-12-07T14:23:31;4.50;99.90
52867;DHT22;38739;53.324;6.862;2022-12-07T14:28:39;4.40;99.90
52867;DHT22;38739;53.324;6.862;2022-12-07T14:31:12;4.40;99.90
52867;DHT22;38739;53.324;6.862;2022-12-07T14:33:39;4.30;99.90
52867;DHT22;38739;53.324;6.862;2022-12-07T14:36:09;4.30;99.90
52867;DHT22;38739;53.324;6.862;2022-12-07T14:38:36;4.30;99.90
52867;DHT22;38739;53.324;6.862;2022-12-07T14:41:02;4.30;99.90
52867;DHT22;38739;53.324;6.862;2022-12-07T14:43:47;4.30;99.90
52867;DHT22;38739;53.324;6.862;2022-12-07T14:46:13;4.20;99.90
52867;DHT22;38739;53.324;6.862;2022-12-07T14:48:39;4.20;99.90
52867;DHT22;38739;53.324;6.862;2022-12-07T14:51:05;4.20;99.90
52867;DHT22;38739;53.324;6.862;2022-12-07T14:53:36;4.10;99.90
52867;DHT22;38739;53.324;6.862;2022-12-07T14:56:03;4.10;99.90
52867;DHT22;38739;53.324;6.862;2022-12-07T14:58:31;4.00;99.90
52867;DHT22;38739;53.324;6.862;2022-12-07T15:00:58;3.90;99.90
52867;DHT22;38739;53.324;6.862;2022-12-07T15:03:23;3.90;99.90
52867;DHT22;38739;53.324;6.862;2022-12-07T15:05:49;3.90;99.90
52867;DHT22;38739;53.324;6.862;2022-12-07T15:08:15;3.90;99.90
52867;DHT22;38739;53.324;6.862;2022-12-07T15:10:40;3.90;99.90
52867;DHT22;38739;53.324;6.862;2022-12-07T15:13:07;3.90;99.90
52867;DHT22;38739;53.324;6.862;2022-12-07T15:15:53;3.90;99.90
52867;DHT22;38739;53.324;6.862;2022-12-07T15:18:20;3.90;99.90
52867;DHT22;38739;53.324;6.862;2022-12-07T15:20:47;3.90;99.90
52867;DHT22;38739;53.324;6.862;2022-12-07T15:23:13;3.80;99.90
52867;DHT22;38739;53.324;6.862;2022-12-07T15:25:43;3.80;99.90
52867;DHT22;38739;53.324;6.862;2022-12-07T15:28:09;3.80;99.90
52867;DHT22;38739;53.324;6.862;2022-12-07T15:30:37;3.80;99.90
52867;DHT22;38739;53.324;6.862;2022-12-07T15:33:03;3.80;99.90
52867;DHT22;38739;53.324;6.862;2022-12-07T15:35:28;3.70;99.90
52867;DHT22;38739;53.324;6.862;2022-12-07T15:37:54;3.70;99.90
52867;DHT22;38739;53.324;6.862;2022-12-07T15:40:20;3.70;99.90
52867;DHT22;38739;53.324;6.862;2022-12-07T15:42:46;3.60;99.90
52867;DHT22;38739;53.324;6.862;2022-12-07T15:45:11;3.60;99.90
52867;DHT22;38739;53.324;6.862;2022-12-07T15:47:43;3.60;99.90
52867;DHT22;38739;53.324;6.862;2022-12-07T15:50:13;3.50;99.90
52867;DHT22;38739;53.324;6.862;2022-12-07T15:52:40;3.50;99.90
52867;DHT22;38739;53.324;6.862;2022-12-07T15:55:06;3.50;99.90
52867;DHT22;38739;53.324;6.862;2022-12-07T15:57:34;3.40;99.90
52867;DHT22;38739;53.324;6.862;2022-12-07T16:00:00;3.40;99.90
52867;DHT22;38739;53.324;6.862;2022-12-07T16:02:26;3.40;99.90
52867;DHT22;38739;53.324;6.862;2022-12-07T16:04:52;3.40;99.90
52867;DHT22;38739;53.324;6.862;2022-12-07T16:07:18;3.40;99.90
52867;DHT22;38739;53.324;6.862;2022-12-07T16:09:45;3.30;99.90
52867;DHT22;38739;53.324;6.862;2022-12-07T16:12:12;3.20;99.90
52867;DHT22;38739;53.324;6.862;2022-12-07T16:14:40;3.00;99.90
52867;DHT22;38739;53.324;6.862;2022-12-07T16:17:06;3.00;99.90
52867;DHT22;38739;53.324;6.862;2022-12-07T16:19:32;3.00;99.90
52867;DHT22;38739;53.324;6.862;2022-12-07T16:24:35;3.00;99.90
52867;DHT22;38739;53.324;6.862;2022-12-07T16:27:14;2.90;99.90
52867;DHT22;38739;53.324;6.862;2022-12-07T16:29:52;2.90;99.90
52867;DHT22;38739;53.324;6.862;2022-12-07T16:32:18;2.90;99.90
52867;DHT22;38739;53.324;6.862;2022-12-07T16:34:44;2.80;99.90
52867;DHT22;38739;53.324;6.862;2022-12-07T16:37:09;2.80;99.90
52867;DHT22;38739;53.324;6.862;2022-12-07T16:39:35;2.70;99.90
52867;DHT22;38739;53.324;6.862;2022-12-07T16:42:01;2.70;99.90
52867;DHT22;38739;53.324;6.862;2022-12-07T16:44:27;2.70;99.90
52867;DHT22;38739;53.324;6.862;2022-12-07T16:46:53;2.60;99.90
52867;DHT22;38739;53.324;6.862;2022-12-07T16:49:22;2.60;99.90
52867;DHT22;38739;53.324;6.862;2022-12-07T16:51:50;2.60;99.90
52867;DHT22;38739;53.324;6.862;2022-12-07T16:54:19;2.60;99.90
52867;DHT22;38739;53.324;6.862;2022-12-07T16:56:45;2.60;99.90
52867;DHT22;38739;53.324;6.862;2022-12-07T16:59:12;2.50;99.90
52867;DHT22;38739;53.324;6.862;2022-12-07T17:01:38;2.50;99.90
52867;DHT22;38739;53.324;6.862;2022-12-07T17:04:04;2.50;99.90
52867;DHT22;38739;53.324;6.862;2022-12-07T17:06:31;2.50;99.90
52867;DHT22;38739;53.324;6.862;2022-12-07T17:08:56;2.50;99.90
52867;DHT22;38739;53.324;6.862;2022-12-07T17:11:27;2.50;99.90
52867;DHT22;38739;53.324;6.862;2022-12-07T17:13:54;2.60;99.90
52867;DHT22;38739;53.324;6.862;2022-12-07T17:16:39;2.60;99.90
52867;DHT22;38739;53.324;6.862;2022-12-07T17:19:10;2.60;99.90
52867;DHT22;38739;53.324;6.862;2022-12-07T17:21:36;2.60;99.90
52867;DHT22;38739;53.324;6.862;2022-12-07T17:24:05;2.60;99.90
52867;DHT22;38739;53.324;6.862;2022-12-07T17:26:30;2.60;99.90
52867;DHT22;38739;53.324;6.862;2022-12-07T17:28:57;2.60;99.90
52867;DHT22;38739;53.324;6.862;2022-12-07T17:31:24;2.60;99.90
52867;DHT22;38739;53.324;6.862;2022-12-07T17:33:50;2.60;99.90
52867;DHT22;38739;53.324;6.862;2022-12-07T17:36:22;2.60;99.90
52867;DHT22;38739;53.324;6.862;2022-12-07T17:38:48;2.60;99.90
52867;DHT22;38739;53.324;6.862;2022-12-07T17:41:23;2.60;99.90
52867;DHT22;38739;53.324;6.862;2022-12-07T17:44:11;2.60;99.90
52867;DHT22;38739;53.324;6.862;2022-12-07T17:46:37;2.60;99.90
52867;DHT22;38739;53.324;6.862;2022-12-07T17:49:04;2.60;99.90
52867;DHT22;38739;53.324;6.862;2022-12-07T17:51:30;2.60;99.90
52867;DHT22;38739;53.324;6.862;2022-12-07T17:54:15;2.50;99.90
52867;DHT22;38739;53.324;6.862;2022-12-07T17:56:41;2.50;99.90
52867;DHT22;38739;53.324;6.862;2022-12-07T17:59:07;2.50;99.90
52867;DHT22;38739;53.324;6.862;2022-12-07T18:01:33;2.50;99.90
52867;DHT22;38739;53.324;6.862;2022-12-07T18:04:00;2.50;99.90
52867;DHT22;38739;53.324;6.862;2022-12-07T18:06:26;2.50;99.90
52867;DHT22;38739;53.324;6.862;2022-12-07T18:08:51;2.50;99.90
52867;DHT22;38739;53.324;6.862;2022-12-07T18:11:17;2.50;99.90